Eastern Hope — V7GV2 — position and weather

sailwx.info

Track history (hours):
 
Tides and Currents Weather Stations Pressure Air Temp Water Temp Dewpoint Dewpoint Depression Visibility Wind Speed Wind Dir Waves Ship Positions

Eastern Hope

Last reported at 2017-Sep-26 09:32 UTC. Time now 2017-Oct-17 08:11 UTC.
Position N 37°14' E 025°51'.
Warning: this ship's position is 20 days out of date.

Length 169 m; draft 9.9 m.

Type: Other ship. MMSI: 538005766.

Date/timePositionNaut miles runAvg speedWind from/ knotsBaromVisibWave heightAir tempDewpointWater temp
2017-Sep-26 09:32N 37°14' E 025°51'013.3
2017-Sep-26 09:30N 37°14' E 025°51'713.3
2017-Sep-26 09:01N 37°21' E 025°51'713.1
2017-Sep-26 08:30N 37°27' E 025°51'713.0
2017-Sep-26 08:00N 37°34' E 025°51'  
2017-Sep-18 21:58N 40°58' E 028°56'0 0.0
2017-Sep-18 21:16N 40°58' E 028°56'0 0.0
2017-Sep-18 20:52N 40°58' E 028°56'0 0.2
2017-Sep-18 20:29N 40°58' E 028°56'1 2.4
2017-Sep-18 20:00N 40°57' E 028°57'4 7.1
2017-Sep-18 19:30N 40°54' E 028°59'612.7
2017-Sep-18 19:00N 40°48' E 029°03'611.3
2017-Sep-18 18:28N 40°45' E 029°09'713.1
2017-Sep-18 17:57N 40°45' E 029°18'18 1.1
2017-Sep-18 01:30N 40°44' E 028°54'711.0
2017-Sep-18 00:53N 40°44' E 028°45'512.5
2017-Sep-18 00:30N 40°44' E 028°38'1511.9
2017-Sep-17 23:15N 40°44' E 028°19'312.8
2017-Sep-17 23:00N 40°44' E 028°15'712.8
2017-Sep-17 22:26N 40°44' E 028°05'712.7
2017-Sep-17 21:55N 40°44' E 027°57'512.3
2017-Sep-17 21:29N 40°43' E 027°49'4012.5
2017-Sep-17 18:17N 40°30' E 026°60'412.5
2017-Sep-17 18:00N 40°29' E 026°55'712.2
2017-Sep-17 17:26N 40°26' E 026°47'510.5
2017-Sep-17 17:00N 40°24' E 026°42'510.8
2017-Sep-17 16:30N 40°20' E 026°37'611.8
2017-Sep-17 16:00N 40°16' E 026°32'611.6
2017-Sep-17 15:28N 40°12' E 026°25'11 9.7
2017-Sep-17 14:19N 40°03' E 026°17'411.6
2017-Sep-17 14:00N 40°01' E 026°13'4 8.7
2017-Sep-17 13:30N 39°60' E 026°08'611.8
2017-Sep-17 13:00N 39°57' E 026°01'510.7
2017-Sep-17 12:30N 39°54' E 025°55'3 5.5
2017-Sep-17 12:00N 39°51' E 025°54'4 8.2
2017-Sep-17 11:28N 39°48' E 025°51'1012.4
2017-Sep-17 10:42N 39°39' E 025°45'5612.2
2017-Sep-17 06:06N 38°49' E 025°12'4512.2
2017-Sep-17 02:25N 38°10' E 024°45'5412.6
2017-Sep-16 22:07N 37°21' E 024°14'412.5
2017-Sep-16 21:49N 37°18' E 024°12'412.6
2017-Sep-16 21:30N 37°15' E 024°09'612.5
2017-Sep-16 21:00N 37°10' E 024°04'612.5
2017-Sep-16 20:30N 37°04' E 023°60'1612.7
2017-Sep-16 19:13N 36°51' E 023°48'312.8
2017-Sep-16 19:00N 36°49' E 023°47'612.9
2017-Sep-16 18:30N 36°44' E 023°42'612.8
2017-Sep-16 18:00N 36°38' E 023°37'713.4
2017-Sep-16 17:30N 36°33' E 023°33'713.8
2017-Sep-16 17:00N 36°27' E 023°28'713.6
2017-Sep-16 16:29N 36°21' E 023°23'613.5
2017-Sep-16 16:00N 36°16' E 023°18'913.2
2017-Sep-16 15:20N 36°09' E 023°12'513.0
2017-Sep-16 14:59N 36°05' E 023°09'  
Track history (hours):
 
Tides and Currents Weather Stations Pressure Air Temp Water Temp Dewpoint Dewpoint Depression Visibility Wind Speed Wind Dir Waves Ship Positions

Eastern Hope

Last reported at 2017-Sep-26 09:32 UTC. Time now 2017-Oct-17 08:11 UTC.
Position N 37°14' E 025°51'.
Warning: this ship's position is 20 days out of date.

Length 169 m; draft 9.9 m.

Type: Other ship. MMSI: 538005766.

Date/timePositionNaut miles runAvg speedWind from/ knotsBaromVisibWave heightAir tempDewpointWater temp
2017-Sep-26 09:32N 37°14' E 025°51'013.3
2017-Sep-26 09:30N 37°14' E 025°51'713.3
2017-Sep-26 09:01N 37°21' E 025°51'713.1
2017-Sep-26 08:30N 37°27' E 025°51'713.0
2017-Sep-26 08:00N 37°34' E 025°51'  
2017-Sep-18 21:58N 40°58' E 028°56'0 0.0
2017-Sep-18 21:16N 40°58' E 028°56'0 0.0
2017-Sep-18 20:52N 40°58' E 028°56'0 0.2
2017-Sep-18 20:29N 40°58' E 028°56'1 2.4
2017-Sep-18 20:00N 40°57' E 028°57'4 7.1
2017-Sep-18 19:30N 40°54' E 028°59'612.7
2017-Sep-18 19:00N 40°48' E 029°03'611.3
2017-Sep-18 18:28N 40°45' E 029°09'713.1
2017-Sep-18 17:57N 40°45' E 029°18'18 1.1
2017-Sep-18 01:30N 40°44' E 028°54'711.0
2017-Sep-18 00:53N 40°44' E 028°45'512.5
2017-Sep-18 00:30N 40°44' E 028°38'1511.9
2017-Sep-17 23:15N 40°44' E 028°19'312.8
2017-Sep-17 23:00N 40°44' E 028°15'712.8
2017-Sep-17 22:26N 40°44' E 028°05'712.7
2017-Sep-17 21:55N 40°44' E 027°57'512.3
2017-Sep-17 21:29N 40°43' E 027°49'4012.5
2017-Sep-17 18:17N 40°30' E 026°60'412.5
2017-Sep-17 18:00N 40°29' E 026°55'712.2
2017-Sep-17 17:26N 40°26' E 026°47'510.5
2017-Sep-17 17:00N 40°24' E 026°42'510.8
2017-Sep-17 16:30N 40°20' E 026°37'611.8
2017-Sep-17 16:00N 40°16' E 026°32'611.6
2017-Sep-17 15:28N 40°12' E 026°25'11 9.7
2017-Sep-17 14:19N 40°03' E 026°17'411.6
2017-Sep-17 14:00N 40°01' E 026°13'4 8.7
2017-Sep-17 13:30N 39°60' E 026°08'611.8
2017-Sep-17 13:00N 39°57' E 026°01'510.7
2017-Sep-17 12:30N 39°54' E 025°55'3 5.5
2017-Sep-17 12:00N 39°51' E 025°54'4 8.2
2017-Sep-17 11:28N 39°48' E 025°51'1012.4
2017-Sep-17 10:42N 39°39' E 025°45'5612.2
2017-Sep-17 06:06N 38°49' E 025°12'4512.2
2017-Sep-17 02:25N 38°10' E 024°45'5412.6
2017-Sep-16 22:07N 37°21' E 024°14'412.5
2017-Sep-16 21:49N 37°18' E 024°12'412.6
2017-Sep-16 21:30N 37°15' E 024°09'612.5
2017-Sep-16 21:00N 37°10' E 024°04'612.5
2017-Sep-16 20:30N 37°04' E 023°60'1612.7
2017-Sep-16 19:13N 36°51' E 023°48'312.8
2017-Sep-16 19:00N 36°49' E 023°47'612.9
2017-Sep-16 18:30N 36°44' E 023°42'612.8
2017-Sep-16 18:00N 36°38' E 023°37'713.4
2017-Sep-16 17:30N 36°33' E 023°33'713.8
2017-Sep-16 17:00N 36°27' E 023°28'713.6
2017-Sep-16 16:29N 36°21' E 023°23'613.5
2017-Sep-16 16:00N 36°16' E 023°18'913.2
2017-Sep-16 15:20N 36°09' E 023°12'513.0
2017-Sep-16 14:59N 36°05' E 023°09'  

Dump ship's entire track history